Beatrice, Nebraska
Current Conditions -  °F | °C
As of 4:15 PM on Sunday 23 Nov 2014 (Local Time) from KBIE Reporting Station
Overcast Overcast  
Wind Chill: 34°   Ceiling: 6500
Heat Index: 43°   Visibility: 10mi
Dew Point: 35°   Wind: 23mph
Humidity: 73%   Direction: 350°N
Pressure: 29.52"   Gusts: NA
Location:  40.27°N, 96.75°W
Report Text: KBIE 232215Z AUTO 35020KT 10SM BKN065 OVC080 06/02 A2952 RMK AO2 T00600015
Loading
Personal Weather Stations






























Interactive Weather Map New forecast layout! Learn more

10-Day Weather Forecast

Advertisements
Track Severe Weather on mobile